Time;durP1;ratioP1;P1;durP2;ratioP2;P2;SDS_P1;SDS_P2;PMS_P1;PMS_P2;Temp;Humidity;BMP_temperature;BMP_pressure;BME280_temperature;BME280_humidity;BME280_pressure;Samples;Min_cycle;Max_cycle;Signal;HPM_P1;HPM_P2
2022/03/19 00:01:13;;;;;;;13.45;4.90;;;;;;;;;;5008882;28;20054;-84
2022/03/19 00:03:41;;;;;;;15.77;6.28;;;;;;;;;;4993382;28;20066;-83
2022/03/19 00:06:07;;;;;;;18.27;6.10;;;;;;;;;;5011224;28;20054;-84
2022/03/19 00:08:34;;;;;;;14.88;5.32;;;;;;;;;;5008987;28;20050;-84
2022/03/19 00:11:00;;;;;;;15.40;5.07;;;;;;;;;;4998749;28;20058;-84
2022/03/19 00:13:27;;;;;;;16.60;5.18;;;;;;;;;;5015387;28;20060;-84
2022/03/19 00:15:53;;;;;;;17.65;5.25;;;;;;;;;;4993994;28;20066;-84
2022/03/19 00:18:20;;;;;;;15.50;5.38;;;;;;;;;;4973586;28;20059;-84
2022/03/19 00:20:47;;;;;;;16.85;5.38;;;;;;;;;;4985758;28;20516;-84
2022/03/19 00:23:15;;;;;;;16.85;5.25;;;;;;;;;;5008614;28;20062;-84
2022/03/19 00:25:42;;;;;;;19.98;5.65;;;;;;;;;;5009094;28;20065;-84
2022/03/19 00:28:08;;;;;;;16.33;5.20;;;;;;;;;;4992537;28;20580;-84
2022/03/19 00:30:35;;;;;;;15.30;5.20;;;;;;;;;;5007883;28;20058;-84
2022/03/19 00:33:01;;;;;;;15.77;4.85;;;;;;;;;;5010426;28;20073;-84
2022/03/19 00:35:27;;;;;;;15.63;4.93;;;;;;;;;;5000774;28;20058;-84
2022/03/19 00:37:56;;;;;;;11.98;5.10;;;;;;;;;;4974981;28;20059;-84
2022/03/19 00:40:23;;;;;;;11.63;4.43;;;;;;;;;;5001526;28;20055;-84
2022/03/19 00:42:49;;;;;;;14.27;4.93;;;;;;;;;;5009959;28;20054;-84
2022/03/19 00:45:16;;;;;;;14.50;5.15;;;;;;;;;;4993175;28;20054;-84
2022/03/19 00:47:43;;;;;;;15.48;4.45;;;;;;;;;;5009846;28;20050;-84
2022/03/19 00:50:09;;;;;;;16.20;4.38;;;;;;;;;;4990332;28;20058;-84
2022/03/19 00:52:35;;;;;;;16.42;4.75;;;;;;;;;;5009558;28;20110;-84
2022/03/19 00:55:02;;;;;;;15.55;4.20;;;;;;;;;;5009233;28;20054;-84
2022/03/19 00:57:36;;;;;;;16.33;4.43;;;;;;;;;;4993053;28;20517;-84
2022/03/19 01:00:04;;;;;;;16.20;4.60;;;;;;;;;;5009408;28;20058;-83
2022/03/19 01:02:30;;;;;;;12.45;4.72;;;;;;;;;;4996003;28;20059;-84
2022/03/19 01:04:57;;;;;;;15.63;4.57;;;;;;;;;;4997975;28;20058;-84
2022/03/19 01:07:23;;;;;;;18.42;4.45;;;;;;;;;;5010542;28;20880;-84
2022/03/19 01:09:49;;;;;;;15.77;4.07;;;;;;;;;;5000158;28;20330;-84
2022/03/19 01:12:16;;;;;;;15.15;4.72;;;;;;;;;;4995693;28;20038;-84
2022/03/19 01:14:42;;;;;;;16.50;4.70;;;;;;;;;;5021266;28;20129;-84
2022/03/19 01:17:09;;;;;;;24.25;5.05;;;;;;;;;;4994514;28;20515;-84
2022/03/19 01:19:53;;;;;;;13.80;4.30;;;;;;;;;;4993200;28;20055;-85
2022/03/19 01:22:21;;;;;;;11.50;4.20;;;;;;;;;;4994466;28;20498;-85
2022/03/19 01:24:48;;;;;;;19.75;4.70;;;;;;;;;;5005247;28;20105;-84
2022/03/19 01:27:15;;;;;;;13.77;4.22;;;;;;;;;;5006229;28;20121;-84
2022/03/19 01:29:54;;;;;;;13.50;4.55;;;;;;;;;;5012922;28;20517;-84
2022/03/19 01:32:21;;;;;;;19.75;4.82;;;;;;;;;;5010537;28;20066;-84
2022/03/19 01:34:47;;;;;;;15.98;4.47;;;;;;;;;;5013910;28;20054;-84
2022/03/19 01:37:14;;;;;;;16.52;4.03;;;;;;;;;;5014582;28;20514;-84
2022/03/19 01:39:40;;;;;;;18.30;4.68;;;;;;;;;;5013423;28;20046;-84
2022/03/19 01:42:06;;;;;;;12.13;4.03;;;;;;;;;;4996055;28;20043;-84
2022/03/19 01:44:33;;;;;;;13.75;4.45;;;;;;;;;;5013776;28;20109;-84
2022/03/19 01:47:00;;;;;;;12.45;3.90;;;;;;;;;;4997606;28;20043;-84
2022/03/19 01:49:29;;;;;;;15.30;3.88;;;;;;;;;;4993462;28;20058;-84
2022/03/19 01:51:56;;;;;;;18.00;4.38;;;;;;;;;;5005235;28;20109;-84
2022/03/19 01:54:23;;;;;;;20.58;4.80;;;;;;;;;;4996473;28;20085;-84
2022/03/19 01:56:50;;;;;;;11.60;3.90;;;;;;;;;;5012661;28;20116;-84
2022/03/19 01:59:16;;;;;;;14.48;4.05;;;;;;;;;;4996054;28;20203;-83
2022/03/19 02:01:43;;;;;;;13.55;4.20;;;;;;;;;;5011793;28;20046;-84
2022/03/19 02:04:10;;;;;;;14.02;4.00;;;;;;;;;;5012686;28;20084;-84
2022/03/19 02:06:36;;;;;;;16.60;5.35;;;;;;;;;;4995429;28;20568;-84
2022/03/19 02:09:03;;;;;;;18.08;4.82;;;;;;;;;;5013790;28;20157;-84
2022/03/19 02:11:30;;;;;;;14.52;4.10;;;;;;;;;;5012408;28;20062;-84
2022/03/19 02:13:57;;;;;;;13.60;4.22;;;;;;;;;;5020424;28;20046;-84
2022/03/19 02:16:24;;;;;;;11.93;3.75;;;;;;;;;;5013987;28;20853;-84
2022/03/19 02:18:51;;;;;;;11.13;3.70;;;;;;;;;;4999369;28;20047;-84
2022/03/19 02:21:17;;;;;;;18.27;4.25;;;;;;;;;;4993797;28;20567;-84
2022/03/19 02:26:41;;;;;;;17.23;4.68;;;;;;;;;;5013011;28;20510;-84
2022/03/19 02:29:08;;;;;;;14.25;3.97;;;;;;;;;;5011922;28;20129;-84
2022/03/19 02:31:35;;;;;;;14.43;3.83;;;;;;;;;;5012204;28;20058;-84
2022/03/19 02:34:01;;;;;;;14.60;4.80;;;;;;;;;;5020007;28;20042;-84
2022/03/19 02:36:28;;;;;;;12.52;4.00;;;;;;;;;;4999829;28;20137;-84
2022/03/19 02:38:54;;;;;;;13.45;4.22;;;;;;;;;;5008924;28;20062;-84
2022/03/19 02:41:21;;;;;;;15.93;3.90;;;;;;;;;;5002825;28;20069;-84
2022/03/19 02:43:48;;;;;;;19.10;4.65;;;;;;;;;;5020773;28;20058;-85
2022/03/19 02:46:15;;;;;;;16.75;4.43;;;;;;;;;;5018899;28;20620;-84
2022/03/19 02:48:41;;;;;;;19.33;4.25;;;;;;;;;;5018146;28;20058;-85
2022/03/19 02:51:08;;;;;;;19.80;5.13;;;;;;;;;;5017399;28;20065;-85
2022/03/19 02:53:34;;;;;;;12.30;4.45;;;;;;;;;;5018324;28;20105;-84
2022/03/19 02:56:01;;;;;;;15.52;4.63;;;;;;;;;;4999520;28;20050;-84
2022/03/19 02:58:27;;;;;;;13.85;3.88;;;;;;;;;;5002912;28;20058;-84
2022/03/19 03:00:53;;;;;;;21.85;5.47;;;;;;;;;;5015556;28;20078;-84
2022/03/19 03:03:20;;;;;;;16.73;4.43;;;;;;;;;;4998463;28;20070;-84
2022/03/19 03:05:47;;;;;;;16.75;4.50;;;;;;;;;;5015187;28;20061;-84
2022/03/19 03:08:13;;;;;;;14.40;4.15;;;;;;;;;;5017291;28;20057;-84
2022/03/19 03:10:40;;;;;;;17.10;5.10;;;;;;;;;;5016672;28;20136;-84
2022/03/19 03:13:06;;;;;;;15.02;4.55;;;;;;;;;;5001382;28;20065;-84
2022/03/19 03:15:33;;;;;;;17.55;4.13;;;;;;;;;;5015603;28;20109;-84
2022/03/19 03:18:01;;;;;;;17.05;4.53;;;;;;;;;;5000080;28;20980;-84
2022/03/19 03:20:28;;;;;;;18.38;4.22;;;;;;;;;;5014637;28;20477;-84
2022/03/19 03:22:54;;;;;;;12.02;3.80;;;;;;;;;;5024571;28;20049;-84
2022/03/19 03:25:21;;;;;;;15.30;4.32;;;;;;;;;;5032624;28;20108;-84
2022/03/19 03:27:47;;;;;;;12.73;4.00;;;;;;;;;;5014249;28;20046;-84
2022/03/19 03:30:15;;;;;;;15.32;4.68;;;;;;;;;;5013299;28;20514;-84
2022/03/19 03:32:43;;;;;;;13.90;4.35;;;;;;;;;;5020267;28;20047;-84
2022/03/19 03:35:09;;;;;;;14.15;4.20;;;;;;;;;;5006102;28;20055;-84
2022/03/19 03:37:36;;;;;;;13.88;4.60;;;;;;;;;;5013139;28;20047;-84
2022/03/19 03:40:03;;;;;;;17.90;4.40;;;;;;;;;;5011182;28;20061;-84
2022/03/19 03:42:29;;;;;;;13.50;4.35;;;;;;;;;;5008372;28;20523;-84
2022/03/19 03:44:58;;;;;;;13.55;4.63;;;;;;;;;;5008653;28;20057;-84
2022/03/19 03:47:26;;;;;;;18.73;4.30;;;;;;;;;;4995794;28;20050;-84
2022/03/19 03:49:53;;;;;;;16.85;4.65;;;;;;;;;;4995932;28;20109;-84
2022/03/19 03:52:21;;;;;;;17.70;4.40;;;;;;;;;;5005212;28;20039;-84
2022/03/19 03:54:47;;;;;;;13.40;4.20;;;;;;;;;;4990933;28;20055;-84
2022/03/19 03:57:13;;;;;;;15.57;4.13;;;;;;;;;;4982186;28;20058;-84
2022/03/19 03:59:40;;;;;;;19.35;4.80;;;;;;;;;;4994883;28;20512;-84
2022/03/19 04:02:06;;;;;;;15.55;4.78;;;;;;;;;;5009362;28;20133;-84
2022/03/19 04:04:33;;;;;;;15.95;5.28;;;;;;;;;;5011516;28;20050;-84
2022/03/19 04:06:59;;;;;;;18.55;4.88;;;;;;;;;;5012846;28;20132;-85
2022/03/19 04:09:25;;;;;;;18.98;4.75;;;;;;;;;;4994285;28;20054;-84
2022/03/19 04:11:52;;;;;;;15.77;4.78;;;;;;;;;;5009910;28;20066;-85
2022/03/19 04:14:20;;;;;;;18.58;4.80;;;;;;;;;;5017208;28;20109;-84
2022/03/19 04:16:46;;;;;;;11.88;4.22;;;;;;;;;;5008369;28;20414;-84
2022/03/19 04:19:13;;;;;;;14.40;5.10;;;;;;;;;;4976343;28;20042;-84
2022/03/19 04:21:42;;;;;;;14.00;4.55;;;;;;;;;;5010984;28;20145;-84
2022/03/19 04:24:11;;;;;;;17.13;4.50;;;;;;;;;;4990752;28;20117;-84
2022/03/19 04:26:37;;;;;;;23.55;5.38;;;;;;;;;;5007745;28;20058;-84
2022/03/19 04:29:03;;;;;;;19.27;5.10;;;;;;;;;;5003343;28;20570;-85
2022/03/19 04:31:30;;;;;;;17.25;5.10;;;;;;;;;;4993494;28;20050;-84
2022/03/19 04:33:56;;;;;;;18.85;5.13;;;;;;;;;;4998545;28;20683;-84
2022/03/19 04:36:38;;;;;;;15.20;5.65;;;;;;;;;;5011711;28;20054;-84
2022/03/19 04:39:07;;;;;;;11.25;4.30;;;;;;;;;;5010092;28;20592;-84
2022/03/19 04:41:35;;;;;;;16.15;5.38;;;;;;;;;;5011464;28;20086;-84
2022/03/19 04:44:02;;;;;;;20.38;5.00;;;;;;;;;;5009830;28;20908;-84
2022/03/19 04:46:29;;;;;;;20.95;5.30;;;;;;;;;;5010523;28;20114;-85
2022/03/19 04:48:56;;;;;;;18.75;5.65;;;;;;;;;;5011038;28;20058;-83
2022/03/19 04:51:27;;;;;;;19.30;5.60;;;;;;;;;;5009252;28;20869;-83
2022/03/19 04:53:53;;;;;;;;;;;;;;;;;;5009823;28;20100;-83
2022/03/19 04:56:23;;;;;;;17.45;5.38;;;;;;;;;;5010377;28;48097;-83
2022/03/19 04:58:51;;;;;;;19.35;5.72;;;;;;;;;;4993277;28;20064;-84
2022/03/19 05:01:17;;;;;;;18.20;5.85;;;;;;;;;;5009990;28;20054;-83
2022/03/19 05:03:44;;;;;;;28.13;6.50;;;;;;;;;;5002463;28;20082;-83
2022/03/19 05:06:10;;;;;;;12.98;6.20;;;;;;;;;;4997018;28;20062;-83
2022/03/19 05:08:37;;;;;;;17.02;6.10;;;;;;;;;;5004504;28;20549;-83
2022/03/19 05:11:12;;;;;;;16.20;6.00;;;;;;;;;;5001829;28;20055;-83
2022/03/19 05:13:39;;;;;;;17.33;6.30;;;;;;;;;;5012052;28;20108;-82
2022/03/19 05:16:06;;;;;;;23.77;6.57;;;;;;;;;;5014222;28;20051;-82
2022/03/19 05:18:33;;;;;;;21.88;5.88;;;;;;;;;;4973382;28;20065;-83
2022/03/19 05:20:59;;;;;;;20.05;5.78;;;;;;;;;;4987001;28;20070;-84
2022/03/19 05:23:25;;;;;;;19.15;6.07;;;;;;;;;;4999067;28;20058;-84
2022/03/19 05:26:13;;;;;;;21.83;6.32;;;;;;;;;;4989170;28;20086;-87
2022/03/19 05:28:55;;;;;;;16.38;6.45;;;;;;;;;;4985774;28;20059;-84
2022/03/19 05:31:41;;;;;;;20.45;6.72;;;;;;;;;;4991827;28;20062;-84
2022/03/19 05:36:53;;;;;;;22.67;6.72;;;;;;;;;;4990423;28;20055;-84
2022/03/19 05:39:19;;;;;;;20.52;6.40;;;;;;;;;;4987448;28;20145;-84
2022/03/19 05:41:45;;;;;;;16.70;6.90;;;;;;;;;;4990735;28;20067;-84
2022/03/19 05:44:12;;;;;;;21.58;7.13;;;;;;;;;;4990217;28;20070;-84
2022/03/19 05:46:39;;;;;;;20.60;6.70;;;;;;;;;;5008150;28;20117;-84
2022/03/19 05:49:05;;;;;;;24.10;6.95;;;;;;;;;;5008104;28;20129;-84
2022/03/19 05:51:31;;;;;;;17.50;6.38;;;;;;;;;;5006884;28;20133;-84
2022/03/19 05:53:58;;;;;;;25.85;7.65;;;;;;;;;;4981236;28;20055;-83
2022/03/19 05:56:24;;;;;;;21.50;7.45;;;;;;;;;;5007365;28;20089;-84
2022/03/19 05:58:51;;;;;;;21.67;6.97;;;;;;;;;;5007929;28;20121;-84
2022/03/19 06:01:17;;;;;;;22.98;6.90;;;;;;;;;;5009528;28;20580;-84
2022/03/19 06:03:44;;;;;;;19.55;7.03;;;;;;;;;;5011736;28;20051;-84
2022/03/19 06:06:10;;;;;;;22.88;7.47;;;;;;;;;;5010959;28;20054;-84
2022/03/19 06:08:37;;;;;;;17.30;7.25;;;;;;;;;;5001928;28;20541;-84
2022/03/19 06:11:03;;;;;;;26.52;8.27;;;;;;;;;;5008955;28;20086;-84
2022/03/19 06:13:29;;;;;;;18.23;7.35;;;;;;;;;;5016164;28;20476;-84
2022/03/19 06:15:56;;;;;;;24.08;7.45;;;;;;;;;;5004828;28;20059;-84
2022/03/19 06:18:22;;;;;;;24.73;7.90;;;;;;;;;;4988776;28;20061;-84
2022/03/19 06:20:49;;;;;;;20.67;7.00;;;;;;;;;;5009346;28;20059;-84
2022/03/19 06:23:15;;;;;;;23.25;7.85;;;;;;;;;;5009284;28;20616;-84
2022/03/19 06:25:41;;;;;;;22.55;7.70;;;;;;;;;;5011962;28;20054;-84
2022/03/19 06:28:08;;;;;;;20.77;7.70;;;;;;;;;;5010214;28;20062;-84
2022/03/19 06:30:37;;;;;;;22.88;7.90;;;;;;;;;;5008136;28;20133;-83
2022/03/19 06:33:04;;;;;;;22.65;7.90;;;;;;;;;;5005597;28;20078;-84
2022/03/19 06:38:17;;;;;;;20.00;7.60;;;;;;;;;;4998399;28;20058;-83
2022/03/19 06:40:43;;;;;;;30.92;8.23;;;;;;;;;;5005674;28;20043;-83
2022/03/19 06:43:09;;;;;;;23.67;7.88;;;;;;;;;;5010023;28;20167;-84
2022/03/19 06:45:37;;;;;;;22.02;7.45;;;;;;;;;;5013854;28;20061;-82
2022/03/19 06:48:04;;;;;;;20.30;6.95;;;;;;;;;;5015441;28;20085;-83
2022/03/19 06:50:30;;;;;;;21.35;6.90;;;;;;;;;;5007292;28;20063;-83
2022/03/19 06:52:57;;;;;;;18.73;6.80;;;;;;;;;;5011904;28;20058;-83
2022/03/19 06:55:25;;;;;;;19.27;6.68;;;;;;;;;;5011367;28;20054;-83
2022/03/19 06:57:51;;;;;;;14.55;6.35;;;;;;;;;;5010418;28;20065;-83
2022/03/19 07:00:18;;;;;;;23.42;7.65;;;;;;;;;;5010146;28;20093;-83
2022/03/19 07:02:51;;;;;;;24.83;7.07;;;;;;;;;;5011925;28;20057;-83
2022/03/19 07:05:19;;;;;;;20.55;6.88;;;;;;;;;;5010113;28;20054;-83
2022/03/19 07:07:46;;;;;;;20.33;7.55;;;;;;;;;;5009325;28;20967;-83
2022/03/19 07:10:13;;;;;;;21.00;6.65;;;;;;;;;;5009624;28;20055;-83
2022/03/19 07:12:40;;;;;;;14.82;6.70;;;;;;;;;;5011076;28;21165;-84
2022/03/19 07:15:07;;;;;;;17.45;6.55;;;;;;;;;;5021231;28;20069;-83
2022/03/19 07:17:33;;;;;;;17.83;6.45;;;;;;;;;;5010487;28;20058;-83
2022/03/19 07:20:00;;;;;;;19.88;5.72;;;;;;;;;;5001566;28;20046;-83
2022/03/19 07:22:26;;;;;;;22.85;6.00;;;;;;;;;;5011206;28;20512;-84
2022/03/19 07:24:53;;;;;;;17.27;6.28;;;;;;;;;;5010178;28;20057;-84
2022/03/19 07:27:35;;;;;;;19.67;6.30;;;;;;;;;;5010713;28;20073;-84
2022/03/19 07:30:11;;;;;;;18.30;6.07;;;;;;;;;;5012711;28;20046;-83
2022/03/19 07:33:03;;;;;;;17.90;5.55;;;;;;;;;;5126858;27;20124;-83
2022/03/19 07:35:30;;;;;;;12.95;5.20;;;;;;;;;;5125519;27;20052;-83
2022/03/19 07:38:02;;;;;;;14.43;5.57;;;;;;;;;;5124920;27;20044;-84
2022/03/19 07:43:22;;;;;;;19.80;5.82;;;;;;;;;;5107719;28;20556;-83
2022/03/19 07:45:48;;;;;;;12.55;4.80;;;;;;;;;;5097825;28;20098;-83
2022/03/19 07:48:20;;;;;;;15.43;4.72;;;;;;;;;;5103669;27;20079;-84
2022/03/19 07:50:53;;;;;;;14.10;5.00;;;;;;;;;;5103887;27;20594;-84
2022/03/19 07:53:21;;;;;;;18.05;4.90;;;;;;;;;;5088177;28;20056;-84
2022/03/19 07:55:48;;;;;;;14.25;4.68;;;;;;;;;;5087039;28;20099;-84
2022/03/19 07:58:17;;;;;;;14.90;5.03;;;;;;;;;;5098268;28;20092;-84
2022/03/19 08:00:43;;;;;;;14.98;5.32;;;;;;;;;;5108888;27;20110;-84
2022/03/19 08:03:10;;;;;;;11.68;4.75;;;;;;;;;;5106381;28;20045;-84
2022/03/19 08:05:39;;;;;;;11.90;4.55;;;;;;;;;;5105812;28;20567;-83
2022/03/19 08:08:06;;;;;;;15.38;4.85;;;;;;;;;;5099927;28;20056;-84
2022/03/19 08:10:34;;;;;;;12.88;5.07;;;;;;;;;;5103852;27;20549;-84
2022/03/19 08:13:05;;;;;;;11.15;3.95;;;;;;;;;;5091660;28;22235;-84
2022/03/19 08:15:32;;;;;;;15.48;4.97;;;;;;;;;;5096837;28;20608;-84
2022/03/19 08:17:59;;;;;;;16.27;4.72;;;;;;;;;;5099506;28;20052;-84
2022/03/19 08:20:26;;;;;;;13.48;4.22;;;;;;;;;;5094948;28;20122;-84
2022/03/19 08:22:52;;;;;;;11.52;4.60;;;;;;;;;;5089382;28;20037;-84
2022/03/19 08:25:20;;;;;;;12.98;4.97;;;;;;;;;;5086609;28;20107;-84
2022/03/19 08:27:47;;;;;;;13.05;4.47;;;;;;;;;;5104471;28;20053;-84
2022/03/19 08:30:13;;;;;;;12.73;4.40;;;;;;;;;;5097485;28;20053;-84
2022/03/19 08:32:39;;;;;;;17.50;4.63;;;;;;;;;;5095808;27;20056;-84
2022/03/19 08:35:06;;;;;;;12.50;4.13;;;;;;;;;;5091609;27;20057;-84
2022/03/19 08:37:32;;;;;;;15.48;4.00;;;;;;;;;;5093294;27;20068;-83
2022/03/19 08:40:18;;;;;;;15.25;4.13;;;;;;;;;;5084981;28;20053;-84
2022/03/19 08:42:52;;;;;;;14.23;4.32;;;;;;;;;;5089193;28;20143;-84
2022/03/19 08:45:19;;;;;;;13.07;4.15;;;;;;;;;;5084714;28;20054;-83
2022/03/19 08:47:45;;;;;;;17.33;3.72;;;;;;;;;;5089194;28;20045;-84
2022/03/19 08:50:12;;;;;;;12.30;4.13;;;;;;;;;;5079220;28;20114;-83
2022/03/19 08:52:38;;;;;;;11.20;3.85;;;;;;;;;;5084579;28;20063;-83
2022/03/19 08:55:05;;;;;;;16.13;4.40;;;;;;;;;;5076257;28;20526;-82
2022/03/19 08:57:32;;;;;;;11.60;3.53;;;;;;;;;;5074925;28;20103;-81
2022/03/19 08:59:58;;;;;;;9.88;3.65;;;;;;;;;;5087007;28;20056;-82
2022/03/19 09:02:39;;;;;;;8.70;3.00;;;;;;;;;;5089271;28;20053;-83
2022/03/19 09:05:06;;;;;;;10.27;2.92;;;;;;;;;;5083377;28;20059;-82
2022/03/19 09:07:33;;;;;;;10.45;3.15;;;;;;;;;;5091919;28;20084;-84
2022/03/19 09:09:59;;;;;;;9.57;2.63;;;;;;;;;;5078383;28;20033;-83
2022/03/19 09:12:32;;;;;;;8.35;2.60;;;;;;;;;;5074341;28;20080;-83
2022/03/19 09:14:58;;;;;;;11.95;3.20;;;;;;;;;;5092177;28;20079;-83
2022/03/19 09:17:25;;;;;;;10.05;2.95;;;;;;;;;;5095153;28;20048;-83
2022/03/19 09:19:51;;;;;;;6.47;2.28;;;;;;;;;;5089450;28;20198;-84
2022/03/19 09:22:18;;;;;;;10.10;2.95;;;;;;;;;;5087920;28;20061;-83
2022/03/19 09:24:44;;;;;;;9.40;2.63;;;;;;;;;;5087620;28;20594;-83
2022/03/19 09:27:11;;;;;;;8.32;2.60;;;;;;;;;;5077052;28;20053;-83
2022/03/19 09:29:37;;;;;;;7.75;1.95;;;;;;;;;;5084184;28;20049;-84
2022/03/19 09:32:04;;;;;;;9.48;2.28;;;;;;;;;;5087906;28;20052;-83
2022/03/19 09:34:30;;;;;;;5.78;1.83;;;;;;;;;;5079260;28;20049;-83
2022/03/19 09:36:57;;;;;;;6.45;1.90;;;;;;;;;;5084028;28;20036;-82
2022/03/19 09:39:23;;;;;;;6.97;1.90;;;;;;;;;;5094436;28;20110;-83
2022/03/19 09:41:50;;;;;;;6.68;1.88;;;;;;;;;;5073425;28;20969;-83
2022/03/19 09:44:17;;;;;;;8.07;1.40;;;;;;;;;;5077144;28;20056;-83
2022/03/19 09:46:46;;;;;;;4.78;1.55;;;;;;;;;;5084101;28;20832;-83
2022/03/19 09:49:13;;;;;;;5.50;1.70;;;;;;;;;;5092666;28;20048;-83
2022/03/19 09:51:40;;;;;;;6.32;1.48;;;;;;;;;;5088875;28;20063;-83
2022/03/19 09:54:09;;;;;;;6.07;1.42;;;;;;;;;;5086412;28;20056;-83
2022/03/19 09:56:36;;;;;;;9.48;1.85;;;;;;;;;;5087429;28;20086;-82
2022/03/19 09:59:03;;;;;;;7.10;1.65;;;;;;;;;;5083564;28;20474;-83
2022/03/19 10:01:31;;;;;;;10.20;1.95;;;;;;;;;;5083526;28;20056;-83
2022/03/19 10:04:02;;;;;;;6.28;2.15;;;;;;;;;;5081450;28;20103;-83
2022/03/19 10:09:18;;;;;;;5.90;2.08;;;;;;;;;;5093530;28;20063;-84
2022/03/19 10:11:47;;;;;;;6.53;1.95;;;;;;;;;;5087734;28;20061;-83
2022/03/19 10:14:18;;;;;;;7.85;2.22;;;;;;;;;;5088933;28;20092;-83
2022/03/19 10:16:47;;;;;;;9.43;2.70;;;;;;;;;;5077987;28;20076;-83
2022/03/19 10:19:14;;;;;;;8.55;1.95;;;;;;;;;;5101473;27;20103;-83
2022/03/19 10:21:41;;;;;;;8.23;1.90;;;;;;;;;;5088245;28;20095;-83
2022/03/19 10:24:08;;;;;;;5.65;2.00;;;;;;;;;;5087812;28;20041;-83
2022/03/19 10:26:37;;;;;;;9.82;1.60;;;;;;;;;;5076509;28;20116;-84
2022/03/19 10:29:04;;;;;;;6.60;1.95;;;;;;;;;;5078445;28;20056;-84
2022/03/19 10:31:32;;;;;;;7.72;2.25;;;;;;;;;;5089355;28;20041;-83
2022/03/19 10:34:05;;;;;;;5.80;1.63;;;;;;;;;;5093656;28;20053;-86
2022/03/19 10:36:49;;;;;;;7.95;1.63;;;;;;;;;;5077316;28;20053;-86
2022/03/19 10:39:20;;;;;;;6.45;1.55;;;;;;;;;;5082197;28;20045;-84
2022/03/19 10:41:47;;;;;;;5.43;1.50;;;;;;;;;;5094905;28;20044;-84
2022/03/19 10:44:16;;;;;;;6.43;1.48;;;;;;;;;;5092129;28;20523;-84
2022/03/19 10:46:49;;;;;;;4.30;1.33;;;;;;;;;;5075321;28;20053;-84
2022/03/19 10:49:17;;;;;;;5.78;1.50;;;;;;;;;;5081276;28;20052;-84
2022/03/19 10:51:48;;;;;;;4.63;1.40;;;;;;;;;;5076471;28;20083;-83
2022/03/19 10:54:15;;;;;;;8.50;1.70;;;;;;;;;;5080650;28;20110;-83
2022/03/19 10:56:42;;;;;;;6.75;1.60;;;;;;;;;;5080913;28;20174;-84
2022/03/19 10:59:08;;;;;;;3.70;1.42;;;;;;;;;;5081931;28;20052;-84
2022/03/19 11:01:36;;;;;;;6.63;1.42;;;;;;;;;;5090808;28;20821;-84
2022/03/19 11:04:07;;;;;;;9.82;1.83;;;;;;;;;;5082435;28;20102;-83
2022/03/19 11:06:33;;;;;;;;;;;;;;;;;;5085822;28;20125;-83
2022/03/19 11:09:04;;;;;;;5.78;1.50;;;;;;;;;;5088488;28;46484;-84
2022/03/19 11:11:51;;;;;;;6.50;1.90;;;;;;;;;;5083432;28;20049;-84
2022/03/19 11:14:23;;;;;;;5.65;1.40;;;;;;;;;;5103260;28;20080;-84
2022/03/19 11:19:52;;;;;;;9.18;1.90;;;;;;;;;;5079317;28;20063;-83
2022/03/19 11:22:21;;;;;;;5.35;1.40;;;;;;;;;;5090157;28;20067;-82
2022/03/19 11:25:00;;;;;;;7.57;1.98;;;;;;;;;;5094471;28;20037;-83
2022/03/19 11:27:28;;;;;;;8.10;2.17;;;;;;;;;;5086681;28;20053;-83
2022/03/19 11:30:03;;;;;;;6.63;1.75;;;;;;;;;;5083027;28;20620;-82
2022/03/19 11:32:30;;;;;;;6.22;1.60;;;;;;;;;;5087576;28;20052;-82
2022/03/19 11:34:57;;;;;;;6.22;1.70;;;;;;;;;;5087038;28;20442;-83
2022/03/19 11:37:30;;;;;;;8.20;1.80;;;;;;;;;;5073524;28;20121;-83
2022/03/19 11:40:02;;;;;;;9.32;1.80;;;;;;;;;;5087136;28;20078;-83
2022/03/19 11:42:30;;;;;;;7.03;1.70;;;;;;;;;;5082809;28;20053;-82
2022/03/19 11:45:09;;;;;;;7.00;1.50;;;;;;;;;;5088476;28;20053;-82
2022/03/19 11:47:43;;;;;;;5.75;1.38;;;;;;;;;;5094136;28;20043;-82
2022/03/19 11:50:20;;;;;;;6.93;1.55;;;;;;;;;;5093688;28;20063;-82
2022/03/19 11:52:47;;;;;;;7.30;1.50;;;;;;;;;;5077469;28;20057;-82
2022/03/19 11:55:19;;;;;;;4.97;1.58;;;;;;;;;;5081302;28;20075;-82
2022/03/19 11:57:47;;;;;;;6.78;1.50;;;;;;;;;;5073561;28;20055;-82
2022/03/19 12:00:14;;;;;;;6.75;1.55;;;;;;;;;;5086679;28;20063;-82
2022/03/19 12:03:01;;;;;;;6.68;1.45;;;;;;;;;;5091297;28;20107;-82
2022/03/19 12:05:28;;;;;;;7.05;1.67;;;;;;;;;;5085797;28;20044;-82
2022/03/19 12:07:57;;;;;;;7.70;1.60;;;;;;;;;;5081614;28;20052;-82
2022/03/19 12:10:31;;;;;;;9.90;1.60;;;;;;;;;;5089682;28;20135;-82
2022/03/19 12:12:57;;;;;;;7.45;1.60;;;;;;;;;;5082045;28;20846;-83
2022/03/19 12:15:33;;;;;;;7.45;1.85;;;;;;;;;;5077593;28;20044;-83
2022/03/19 12:18:18;;;;;;;7.40;1.75;;;;;;;;;;5100550;27;20051;-84
2022/03/19 12:20:45;;;;;;;8.15;1.90;;;;;;;;;;5092364;28;20056;-83
2022/03/19 12:23:11;;;;;;;6.03;1.10;;;;;;;;;;5089604;28;20517;-82
2022/03/19 12:25:41;;;;;;;9.38;1.20;;;;;;;;;;5096598;28;20048;-83
2022/03/19 12:28:08;;;;;;;8.98;1.42;;;;;;;;;;5096639;28;20080;-84
2022/03/19 12:30:38;;;;;;;5.95;1.65;;;;;;;;;;5088912;28;20573;-83
2022/03/19 12:33:04;;;;;;;7.80;1.17;;;;;;;;;;5081382;28;20056;-83
2022/03/19 12:35:34;;;;;;;7.72;1.25;;;;;;;;;;5090177;28;20049;-83
2022/03/19 12:38:00;;;;;;;12.07;1.63;;;;;;;;;;5084591;28;20054;-81
2022/03/19 12:40:28;;;;;;;5.90;1.40;;;;;;;;;;5090189;28;20053;-82
2022/03/19 12:42:55;;;;;;;7.53;1.52;;;;;;;;;;5075448;28;20107;-83
2022/03/19 12:45:37;;;;;;;5.72;1.20;;;;;;;;;;5074148;28;20142;-82
2022/03/19 12:48:10;;;;;;;7.68;1.70;;;;;;;;;;5091281;28;20040;-82
2022/03/19 12:50:37;;;;;;;7.15;1.73;;;;;;;;;;5091226;28;20127;-82
2022/03/19 12:53:04;;;;;;;6.25;1.33;;;;;;;;;;5077173;28;20045;-82
2022/03/19 12:55:31;;;;;;;6.88;1.38;;;;;;;;;;5080505;28;20989;-82
2022/03/19 12:57:58;;;;;;;5.38;1.25;;;;;;;;;;5080800;28;20057;-82
2022/03/19 13:00:24;;;;;;;8.90;1.40;;;;;;;;;;5101399;28;20525;-82
2022/03/19 13:02:52;;;;;;;7.63;1.65;;;;;;;;;;5099937;28;20593;-82
2022/03/19 13:05:18;;;;;;;10.68;1.65;;;;;;;;;;5099425;28;20048;-82
2022/03/19 13:08:04;;;;;;;8.15;1.63;;;;;;;;;;5086892;28;20045;-81
2022/03/19 13:10:40;;;;;;;11.23;2.25;;;;;;;;;;5089785;28;20522;-82
2022/03/19 13:13:06;;;;;;;9.75;1.45;;;;;;;;;;5094338;28;20052;-82
2022/03/19 13:15:33;;;;;;;6.47;1.30;;;;;;;;;;5094744;28;20067;-83
2022/03/19 13:17:59;;;;;;;5.22;1.23;;;;;;;;;;5084353;28;20144;-81
2022/03/19 13:20:26;;;;;;;12.65;1.65;;;;;;;;;;5080508;28;20061;-82
2022/03/19 13:23:00;;;;;;;20.33;2.03;;;;;;;;;;5087774;28;20049;-83
2022/03/19 13:25:28;;;;;;;5.97;1.52;;;;;;;;;;5099085;28;20072;-82
2022/03/19 13:27:58;;;;;;;9.10;1.63;;;;;;;;;;5079798;28;20059;-83
2022/03/19 13:30:33;;;;;;;5.28;1.13;;;;;;;;;;5083628;28;20106;-85
2022/03/19 13:33:00;;;;;;;6.70;1.30;;;;;;;;;;5086218;28;20918;-83
2022/03/19 13:35:39;;;;;;;4.93;1.30;;;;;;;;;;5093243;28;20130;-84
2022/03/19 13:38:12;;;;;;;9.35;1.63;;;;;;;;;;5096264;28;20089;-83
2022/03/19 13:40:40;;;;;;;5.68;1.65;;;;;;;;;;5094415;28;20295;-83
2022/03/19 13:43:06;;;;;;;5.40;1.42;;;;;;;;;;5089909;28;20860;-83
2022/03/19 13:45:33;;;;;;;6.93;1.45;;;;;;;;;;5090131;28;20044;-83
2022/03/19 13:48:07;;;;;;;6.30;1.17;;;;;;;;;;5090754;28;20079;-83
2022/03/19 13:50:38;;;;;;;3.83;1.45;;;;;;;;;;5091643;28;20549;-83
2022/03/19 13:53:05;;;;;;;7.40;1.08;;;;;;;;;;5084950;28;20056;-83
2022/03/19 13:55:39;;;;;;;6.03;1.33;;;;;;;;;;5084415;28;20052;-82
2022/03/19 13:58:09;;;;;;;4.65;1.15;;;;;;;;;;5081681;28;20103;-83
2022/03/19 14:00:39;;;;;;;;;;;;;;;;;;5084128;28;20037;-83
2022/03/19 14:03:07;;;;;;;5.65;1.23;;;;;;;;;;5092093;28;42129;-83
2022/03/19 14:05:38;;;;;;;7.15;1.38;;;;;;;;;;5082954;28;20053;-82
2022/03/19 14:08:10;;;;;;;5.25;1.25;;;;;;;;;;5085697;28;20061;-83
2022/03/19 14:10:38;;;;;;;8.07;1.38;;;;;;;;;;5094124;28;20059;-83
2022/03/19 14:13:08;;;;;;;7.57;1.30;;;;;;;;;;5090572;28;20052;-84
2022/03/19 14:15:35;;;;;;;5.53;1.30;;;;;;;;;;5076835;28;20124;-83
2022/03/19 14:18:02;;;;;;;3.70;1.38;;;;;;;;;;5074878;28;20107;-83
2022/03/19 14:20:29;;;;;;;3.42;1.08;;;;;;;;;;5080370;28;20044;-83
2022/03/19 14:22:56;;;;;;;4.65;1.05;;;;;;;;;;5080291;28;20052;-83
2022/03/19 14:25:23;;;;;;;5.05;1.13;;;;;;;;;;5074211;28;20613;-83
2022/03/19 14:27:50;;;;;;;5.95;1.30;;;;;;;;;;5074090;28;20099;-83
2022/03/19 14:30:20;;;;;;;7.13;1.10;;;;;;;;;;5076868;28;20130;-82
2022/03/19 14:32:46;;;;;;;3.95;1.10;;;;;;;;;;5077201;28;20087;-83
2022/03/19 14:35:26;;;;;;;5.65;0.90;;;;;;;;;;5091527;28;20110;-82
2022/03/19 14:37:53;;;;;;;3.53;0.95;;;;;;;;;;5090459;28;20053;-82
2022/03/19 14:40:19;;;;;;;4.70;1.00;;;;;;;;;;5079941;28;20069;-83
2022/03/19 14:42:45;;;;;;;4.45;0.80;;;;;;;;;;5094140;28;20067;-83
2022/03/19 14:45:12;;;;;;;3.92;0.77;;;;;;;;;;5086667;28;20106;-83
2022/03/19 14:47:38;;;;;;;3.72;0.82;;;;;;;;;;5093444;28;20052;-83
2022/03/19 14:50:05;;;;;;;3.83;1.00;;;;;;;;;;5075015;28;20092;-84
2022/03/19 14:52:31;;;;;;;6.93;1.30;;;;;;;;;;5087820;28;20502;-83
2022/03/19 14:54:57;;;;;;;4.78;1.02;;;;;;;;;;5092296;28;20102;-83
2022/03/19 14:57:25;;;;;;;6.03;1.20;;;;;;;;;;5080238;28;20045;-83
2022/03/19 14:59:57;;;;;;;5.75;0.90;;;;;;;;;;5084285;28;20060;-84